Time;durP1;ratioP1;P1;durP2;ratioP2;P2;SDS_P1;SDS_P2;PMS_P1;PMS_P2;Temp;Humidity;BMP_temperature;BMP_pressure;BME280_temperature;BME280_humidity;BME280_pressure;Samples;Min_cycle;Max_cycle;Signal;HPM_P1;HPM_P2
2023/05/06 00:00:57;;;;;;;;;;;;;;;15.45;56.75;100588.91;4964765;28;7295;-75
2023/05/06 00:03:23;;;;;;;;;;;;;;;15.41;56.87;100581.91;4957450;28;7732;-75
2023/05/06 00:05:49;;;;;;;;;;;;;;;15.37;56.40;100590.38;4957516;28;6966;-75
2023/05/06 00:08:15;;;;;;;;;;;;;;;15.33;56.76;100594.56;4963630;28;7378;-75
2023/05/06 00:10:40;;;;;;;;;;;;;;;15.29;57.36;100592.72;4953108;28;7127;-75
2023/05/06 00:13:07;;;;;;;;;;;;;;;15.26;56.93;100595.22;4978028;28;6972;-75
2023/05/06 00:15:33;;;;;;;;;;;;;;;15.24;56.48;100594.28;4962607;28;6983;-75
2023/05/06 00:17:59;;;;;;;;;;;;;;;15.21;56.57;100584.75;4954255;28;6823;-75
2023/05/06 00:20:26;;;;;;;;;;;;;;;15.18;56.58;100583.78;4964637;28;6812;-75
2023/05/06 00:22:52;;;;;;;;;;;;;;;15.14;57.12;100573.31;4961642;28;6824;-75
2023/05/06 00:25:18;;;;;;;;;;;;;;;15.11;56.76;100569.75;4963152;28;7011;-75
2023/05/06 00:27:44;;;;;;;;;;;;;;;15.07;57.37;100581.72;4965017;28;7189;-75
2023/05/06 00:30:10;;;;;;;;;;;;;;;15.05;57.37;100582.50;4946834;28;6784;-75
2023/05/06 00:32:36;;;;;;;;;;;;;;;15.02;57.50;100582.38;4964029;28;7291;-75
2023/05/06 00:35:02;;;;;;;;;;;;;;;14.99;57.21;100578.88;4967918;28;7326;-75
2023/05/06 00:37:28;;;;;;;;;;;;;;;14.97;56.97;100579.66;4966757;28;6975;-75
2023/05/06 00:39:54;;;;;;;;;;;;;;;14.94;57.84;100577.84;4952935;28;6981;-75
2023/05/06 00:42:22;;;;;;;;;;;;;;;14.92;57.27;100576.94;4965689;28;7281;-75
2023/05/06 00:44:49;;;;;;;;;;;;;;;14.91;57.35;100571.72;4954361;28;6804;-74
2023/05/06 00:47:17;;;;;;;;;;;;;;;14.88;57.43;100575.06;4968618;28;6816;-75
2023/05/06 00:49:45;;;;;;;;;;;;;;;14.86;57.54;100571.56;4983430;28;11601;-75
2023/05/06 00:52:12;;;;;;;;;;;;;;;14.83;57.82;100571.47;4936274;28;6992;-75
2023/05/06 00:54:38;;;;;;;;;;;;;;;14.75;56.80;100573.78;4961253;28;6855;-75
2023/05/06 00:57:05;;;;;;;;;;;;;;;14.70;57.27;100575.31;4964375;28;7105;-75
2023/05/06 00:59:30;;;;;;;;;;;;;;;14.64;57.79;100578.56;4957242;28;7115;-75
2023/05/06 01:01:57;;;;;;;;;;;;;;;14.60;57.27;100571.53;4964917;28;6882;-75
2023/05/06 01:04:24;;;;;;;;;;;;;;;14.60;57.91;100574.09;4949702;28;6792;-75
2023/05/06 01:07:34;;;;;;;;;;;;;;;14.58;58.02;100571.50;4952686;28;7119;-75
2023/05/06 01:10:25;;;;;;;;;;;;;;;14.56;57.77;100575.69;4967678;28;6820;-75
2023/05/06 01:13:34;;;;;;;;;;;;;;;14.56;58.69;100575.69;4953433;28;7321;-75
2023/05/06 01:16:03;;;;;;;;;;;;;;;14.54;58.04;100574.78;4963539;28;6817;-75
2023/05/06 01:18:31;;;;;;;;;;;;;;;14.56;58.50;100573.13;4961145;28;7022;-75
2023/05/06 01:20:59;;;;;;;;;;;;;;;14.56;57.54;100575.69;4961013;28;7254;-75
2023/05/06 01:23:25;;;;;;;;;;;;;;;14.56;58.18;100570.53;4952649;28;6803;-75
2023/05/06 01:25:50;;;;;;;;;;;;;;;14.56;57.73;100577.41;4953869;28;7218;-75
2023/05/06 01:28:16;;;;;;;;;;;;;;;14.55;58.21;100581.69;4978946;28;7415;-75
2023/05/06 01:31:03;;;;;;;;;;;;;;;14.53;58.52;100578.19;4965918;28;6772;-75
2023/05/06 01:34:01;;;;;;;;;;;;;;;14.53;58.43;100570.44;4959849;28;6808;-75
2023/05/06 01:37:05;;;;;;;;;;;;;;;14.54;59.14;100571.31;4965298;28;7023;-75
2023/05/06 01:39:32;;;;;;;;;;;;;;;14.53;58.89;100577.28;4961240;28;7011;-75
2023/05/06 01:42:01;;;;;;;;;;;;;;;14.56;58.78;100567.94;4957475;28;7099;-75
2023/05/06 01:44:33;;;;;;;;;;;;;;;14.59;58.51;100564.59;4965882;28;6792;-75
2023/05/06 01:47:01;;;;;;;;;;;;;;;14.62;58.96;100574.16;4958760;28;6804;-75
2023/05/06 01:49:28;;;;;;;;;;;;;;;14.63;58.38;100570.75;4983238;28;6909;-75
2023/05/06 01:51:54;;;;;;;;;;;;;;;14.63;58.48;100573.34;4956017;28;6800;-75
2023/05/06 01:54:20;;;;;;;;;;;;;;;14.61;57.64;100578.44;4966599;28;6772;-75
2023/05/06 01:56:46;;;;;;;;;;;;;;;14.58;57.82;100575.75;4983935;28;6987;-75
2023/05/06 01:59:11;;;;;;;;;;;;;;;14.53;57.96;100582.44;4946768;28;7501;-75
2023/05/06 02:01:37;;;;;;;;;;;;;;;14.45;57.71;100579.59;4950235;28;7312;-75
2023/05/06 02:04:03;;;;;;;;;;;;;;;14.38;57.35;100583.69;4968430;28;6840;-75
2023/05/06 02:06:28;;;;;;;;;;;;;;;14.31;57.11;100579.13;4962817;28;7552;-75
2023/05/06 02:08:54;;;;;;;;;;;;;;;14.24;58.04;100587.44;4978288;28;6840;-75
2023/05/06 02:11:19;;;;;;;;;;;;;;;14.16;57.29;100587.19;4971791;28;6848;-75
2023/05/06 02:13:45;;;;;;;;;;;;;;;14.11;57.28;100591.31;4951182;28;6840;-75
2023/05/06 02:16:11;;;;;;;;;;;;;;;14.02;57.47;100590.13;4966187;28;6907;-75
2023/05/06 02:18:36;;;;;;;;;;;;;;;13.96;57.52;100589.91;4946761;28;6938;-75
2023/05/06 02:21:02;;;;;;;;;;;;;;;13.88;57.50;100581.91;4965598;28;6917;-75
2023/05/06 02:23:28;;;;;;;;;;;;;;;13.83;56.94;100587.69;4982100;28;6932;-75
2023/05/06 02:25:54;;;;;;;;;;;;;;;13.77;57.30;100583.19;4964861;28;6996;-72
2023/05/06 02:28:20;;;;;;;;;;;;;;;13.72;57.81;100585.59;4978741;28;6970;-73
2023/05/06 02:30:45;;;;;;;;;;;;;;;13.70;57.92;100591.50;4979117;28;6951;-72
2023/05/06 02:33:11;;;;;;;;;;;;;;;13.64;57.63;100581.84;4963241;28;6788;-73
2023/05/06 02:35:36;;;;;;;;;;;;;;;13.59;56.99;100585.94;4982575;28;6813;-74
2023/05/06 02:38:03;;;;;;;;;;;;;;;13.54;57.11;100590.91;4951067;28;8127;-72
2023/05/06 02:40:29;;;;;;;;;;;;;;;13.47;56.88;100588.91;4962917;28;7141;-71
2023/05/06 02:42:54;;;;;;;;;;;;;;;13.41;57.39;100579.22;4950238;28;6781;-73
2023/05/06 02:45:20;;;;;;;;;;;;;;;13.37;57.32;100579.91;4960796;28;6784;-74
2023/05/06 02:47:45;;;;;;;;;;;;;;;13.33;57.58;100580.63;4967281;28;6971;-71
2023/05/06 02:50:11;;;;;;;;;;;;;;;13.31;57.74;100587.38;4958564;28;7620;-72
2023/05/06 02:52:37;;;;;;;;;;;;;;;13.29;57.55;100579.63;4960946;28;7391;-72
2023/05/06 02:55:02;;;;;;;;;;;;;;;13.26;57.59;100579.47;4960701;28;6889;-72
2023/05/06 02:57:31;;;;;;;;;;;;;;;13.24;58.25;100578.53;4978099;28;7183;-76
2023/05/06 02:59:56;;;;;;;;;;;;;;;13.19;57.73;100578.38;4964787;28;6804;-74
2023/05/06 03:02:22;;;;;;;;;;;;;;;13.18;58.30;100584.34;4958808;28;6796;-74
2023/05/06 03:04:48;;;;;;;;;;;;;;;13.18;58.41;100581.75;4951209;28;6772;-74
2023/05/06 03:07:13;;;;;;;;;;;;;;;13.15;58.19;100579.06;4944799;28;6943;-74
2023/05/06 03:09:39;;;;;;;;;;;;;;;13.15;57.80;100576.50;4966004;28;7241;-74
2023/05/06 03:12:05;;;;;;;;;;;;;;;13.12;57.63;100571.19;4948398;28;7236;-75
2023/05/06 03:14:30;;;;;;;;;;;;;;;13.11;57.82;100568.59;4960215;28;6840;-75
2023/05/06 03:16:56;;;;;;;;;;;;;;;13.08;58.04;100574.47;4962503;28;6942;-74
2023/05/06 03:19:22;;;;;;;;;;;;;;;13.05;57.80;100574.38;4947427;28;6796;-74
2023/05/06 03:21:48;;;;;;;;;;;;;;;13.02;58.56;100571.66;4942923;28;8726;-74
2023/05/06 03:24:13;;;;;;;;;;;;;;;13.02;58.07;100576.78;4975933;28;6775;-74
2023/05/06 03:26:39;;;;;;;;;;;;;;;13.00;57.63;100573.28;4955556;28;6768;-74
2023/05/06 03:29:05;;;;;;;;;;;;;;;12.98;58.17;100562.94;4971418;28;9109;-74
2023/05/06 03:31:30;;;;;;;;;;;;;;;12.97;58.56;100568.03;4945104;28;8096;-74
2023/05/06 03:33:56;;;;;;;;;;;;;;;12.98;58.23;100570.66;4969976;28;7370;-74
2023/05/06 03:36:26;;;;;;;;;;;;;;;13.01;58.80;100573.38;4952914;28;7244;-74
2023/05/06 03:38:53;;;;;;;;;;;;;;;13.02;58.69;100576.78;4975833;28;7417;-74
2023/05/06 03:41:18;;;;;;;;;;;;;;;13.02;58.18;100569.06;4966295;28;7077;-74
2023/05/06 03:43:44;;;;;;;;;;;;;;;13.01;58.61;100568.22;4953695;28;7015;-74
2023/05/06 03:46:10;;;;;;;;;;;;;;;13.01;59.10;100567.31;4980210;28;6915;-74
2023/05/06 03:48:35;;;;;;;;;;;;;;;13.00;58.60;100575.84;4965666;28;7004;-74
2023/05/06 03:51:02;;;;;;;;;;;;;;;12.99;58.47;100568.97;4958340;28;6820;-74
2023/05/06 03:53:27;;;;;;;;;;;;;;;12.98;58.30;100572.34;4949975;28;6824;-74
2023/05/06 03:55:53;;;;;;;;;;;;;;;12.98;59.34;100577.50;4965637;28;6824;-74
2023/05/06 03:58:19;;;;;;;;;;;;;;;12.97;58.90;100575.75;4978691;28;7036;-74
2023/05/06 04:00:45;;;;;;;;;;;;;;;13.00;59.63;100573.28;4955441;28;7260;-74
2023/05/06 04:03:10;;;;;;;;;;;;;;;13.03;59.08;100582.00;4946825;28;7018;-74
2023/05/06 04:05:36;;;;;;;;;;;;;;;13.07;59.21;100577.88;4972057;28;6956;-74
2023/05/06 04:08:01;;;;;;;;;;;;;;;13.13;59.81;100578.09;4961731;28;6818;-74
2023/05/06 04:10:28;;;;;;;;;;;;;;;13.17;59.63;100579.09;4951516;28;7211;-74
2023/05/06 04:12:53;;;;;;;;;;;;;;;13.22;59.69;100577.63;4958679;28;6800;-74
2023/05/06 04:15:19;;;;;;;;;;;;;;;13.26;59.17;100586.34;4957741;28;7263;-74
2023/05/06 04:17:45;;;;;;;;;;;;;;;13.29;59.60;100578.72;4946214;28;7317;-77
2023/05/06 04:20:11;;;;;;;;;;;;;;;13.34;59.14;100582.38;4978370;28;7854;-77
2023/05/06 04:22:37;;;;;;;;;;;;;;;13.41;59.83;100586.94;4957049;28;7007;-77
2023/05/06 04:25:04;;;;;;;;;;;;;;;13.51;60.27;100579.59;4945594;28;6784;-77
2023/05/06 04:27:30;;;;;;;;;;;;;;;13.62;60.45;100586.06;4959600;28;6995;-77
2023/05/06 04:29:57;;;;;;;;;;;;;;;13.75;59.98;100584.81;4959844;28;7172;-77
2023/05/06 04:32:24;;;;;;;;;;;;;;;13.91;60.40;100590.56;4976141;28;6980;-77
2023/05/06 04:34:53;;;;;;;;;;;;;;;14.06;61.03;100592.81;4954292;28;7681;-74
2023/05/06 04:37:19;;;;;;;;;;;;;;;14.19;60.45;100587.28;4960061;28;7140;-74
2023/05/06 04:39:46;;;;;;;;;;;;;;;14.33;60.15;100592.94;4951897;28;7711;-74
2023/05/06 04:42:13;;;;;;;;;;;;;;;14.46;60.33;100594.25;4957988;28;7866;-75
2023/05/06 04:44:39;;;;;;;;;;;;;;;14.57;59.72;100600.66;4958491;28;6804;-74
2023/05/06 04:47:04;;;;;;;;;;;;;;;14.68;60.05;100589.84;4945293;28;6776;-74
2023/05/06 04:49:30;;;;;;;;;;;;;;;14.82;59.78;100598.97;4959175;28;7261;-75
2023/05/06 04:51:56;;;;;;;;;;;;;;;14.99;60.43;100594.34;4971696;28;6953;-75
2023/05/06 04:54:22;;;;;;;;;;;;;;;15.17;59.91;100600.94;4956015;28;6939;-75
2023/05/06 04:56:48;;;;;;;;;;;;;;;15.35;60.62;100594.63;4973199;28;7723;-75
2023/05/06 04:59:13;;;;;;;;;;;;;;;15.57;60.60;100601.34;4955044;28;7789;-75
2023/05/06 05:01:39;;;;;;;;;;;;;;;15.78;60.20;100602.81;4961745;28;6796;-75
2023/05/06 05:04:05;;;;;;;;;;;;;;;15.99;60.26;100607.78;4955860;28;6989;-75
2023/05/06 05:06:30;;;;;;;;;;;;;;;16.22;59.83;100615.31;4945346;28;6784;-75
2023/05/06 05:08:57;;;;;;;;;;;;;;;16.43;59.49;100606.38;4974458;28;7401;-75
2023/05/06 05:11:23;;;;;;;;;;;;;;;16.66;59.27;100609.59;4979972;28;6900;-75
2023/05/06 05:13:49;;;;;;;;;;;;;;;16.88;58.86;100608.44;4959614;28;7393;-75
2023/05/06 05:16:15;;;;;;;;;;;;;;;17.06;58.60;100605.47;4965155;28;7518;-75
2023/05/06 05:18:40;;;;;;;;;;;;;;;17.24;57.83;100614.53;4966588;28;6983;-75
2023/05/06 05:21:06;;;;;;;;;;;;;;;17.42;58.01;100608.88;4953605;28;6907;-75
2023/05/06 05:23:32;;;;;;;;;;;;;;;17.58;57.23;100614.44;4968403;28;6962;-75
2023/05/06 05:25:57;;;;;;;;;;;;;;;17.70;57.04;100611.25;4969002;28;7259;-75
2023/05/06 05:28:23;;;;;;;;;;;;;;;17.83;56.24;100618.44;4962917;28;6951;-75
2023/05/06 05:30:49;;;;;;;;;;;;;;;17.93;56.25;100618.63;4961909;28;6964;-75
2023/05/06 05:33:14;;;;;;;;;;;;;;;18.02;55.93;100618.84;4976092;28;7252;-75
2023/05/06 05:35:40;;;;;;;;;;;;;;;18.10;56.36;100622.50;4966993;28;6782;-75
2023/05/06 05:38:06;;;;;;;;;;;;;;;18.22;55.66;100631.38;4958249;28;7165;-75
2023/05/06 05:40:31;;;;;;;;;;;;;;;18.33;55.94;100619.47;4979093;28;6813;-75
2023/05/06 05:42:57;;;;;;;;;;;;;;;18.44;55.74;100625.75;4982207;28;7258;-76
2023/05/06 05:45:22;;;;;;;;;;;;;;;18.55;54.90;100619.91;4980172;28;6831;-76
2023/05/06 05:47:48;;;;;;;;;;;;;;;18.59;54.72;100624.31;4984401;28;6772;-76
2023/05/06 05:50:13;;;;;;;;;;;;;;;18.58;54.09;100619.97;4963665;28;6906;-75
2023/05/06 05:52:39;;;;;;;;;;;;;;;18.56;53.88;100625.09;4977474;28;8674;-75
2023/05/06 05:55:06;;;;;;;;;;;;;;;18.54;53.28;100618.13;4962495;28;7416;-76
2023/05/06 05:57:31;;;;;;;;;;;;;;;18.52;53.32;100618.13;4955682;28;6990;-76
2023/05/06 05:59:57;;;;;;;;;;;;;;;18.52;53.62;100625.03;4957539;28;8502;-76
2023/05/06 06:02:22;;;;;;;;;;;;;;;18.54;52.99;100625.91;4983834;28;7189;-76
2023/05/06 06:04:48;;;;;;;;;;;;;;;18.56;52.89;100627.69;4969251;28;7795;-75
2023/05/06 06:07:14;;;;;;;;;;;;;;;18.58;53.24;100626.00;4983321;28;6988;-75
2023/05/06 06:09:40;;;;;;;;;;;;;;;18.60;53.06;100623.44;4952331;28;6764;-74
2023/05/06 06:12:06;;;;;;;;;;;;;;;18.61;53.15;100622.59;4963304;28;9514;-74
2023/05/06 06:14:31;;;;;;;;;;;;;;;18.64;53.05;100622.69;4964775;28;6836;-74
2023/05/06 06:16:57;;;;;;;;;;;;;;;18.68;53.26;100624.47;4967348;28;6776;-74
2023/05/06 06:19:23;;;;;;;;;;;;;;;18.71;53.20;100624.50;4968837;28;7102;-74
2023/05/06 06:21:48;;;;;;;;;;;;;;;18.76;53.18;100623.75;4969248;28;6792;-74
2023/05/06 06:24:14;;;;;;;;;;;;;;;18.78;52.99;100624.63;4960898;28;6768;-74
2023/05/06 06:26:40;;;;;;;;;;;;;;;18.81;53.11;100622.09;4962631;28;6772;-74
2023/05/06 06:29:05;;;;;;;;;;;;;;;18.86;53.11;100626.50;4969961;28;6940;-75
2023/05/06 06:31:32;;;;;;;;;;;;;;;18.91;52.81;100630.94;4948016;28;7154;-74
2023/05/06 06:33:58;;;;;;;;;;;;;;;18.95;52.90;100624.91;4961645;28;6803;-74
2023/05/06 06:36:24;;;;;;;;;;;;;;;19.00;52.99;100629.38;4967260;28;7560;-74
2023/05/06 06:38:49;;;;;;;;;;;;;;;19.05;52.61;100626.84;4958007;28;6916;-74
2023/05/06 06:41:15;;;;;;;;;;;;;;;19.10;52.26;100625.22;4969707;28;6979;-74
2023/05/06 06:43:40;;;;;;;;;;;;;;;19.16;52.70;100624.44;4968804;28;6903;-75
2023/05/06 06:46:06;;;;;;;;;;;;;;;19.21;52.58;100627.97;4970526;28;6975;-75
2023/05/06 06:48:32;;;;;;;;;;;;;;;19.27;52.47;100620.28;4950712;28;6919;-74
2023/05/06 06:50:57;;;;;;;;;;;;;;;19.33;52.35;100618.66;4964062;28;6772;-75
2023/05/06 06:53:23;;;;;;;;;;;;;;;19.40;52.14;100630.88;4949412;28;7027;-75
2023/05/06 06:55:48;;;;;;;;;;;;;;;19.46;52.21;100622.28;4978041;28;7349;-74
2023/05/06 06:58:14;;;;;;;;;;;;;;;19.53;51.71;100625.00;4965240;28;7311;-75
2023/05/06 07:00:40;;;;;;;;;;;;;;;19.60;51.71;100622.47;4963781;28;6880;-74
2023/05/06 07:03:05;;;;;;;;;;;;;;;19.66;51.56;100630.38;4965443;28;7089;-73
2023/05/06 07:05:31;;;;;;;;;;;;;;;19.73;51.77;100632.22;4965290;28;6803;-74
2023/05/06 07:07:57;;;;;;;;;;;;;;;19.80;51.22;100628.88;4953943;28;6776;-74
2023/05/06 07:10:22;;;;;;;;;;;;;;;19.88;51.70;100628.06;4963997;28;7094;-74
2023/05/06 07:12:48;;;;;;;;;;;;;;;19.97;51.23;100628.22;4987065;28;7833;-74
2023/05/06 07:15:13;;;;;;;;;;;;;;;20.05;51.40;100626.59;4961220;28;6847;-74
2023/05/06 07:17:39;;;;;;;;;;;;;;;20.13;51.10;100634.47;4973391;28;7292;-75
2023/05/06 07:20:06;;;;;;;;;;;;;;;20.25;51.09;100641.56;4958054;28;7187;-76
2023/05/06 07:22:31;;;;;;;;;;;;;;;20.36;51.33;100631.31;4963113;28;6804;-75
2023/05/06 07:24:57;;;;;;;;;;;;;;;20.47;50.92;100628.78;4984494;28;6776;-74
2023/05/06 07:27:23;;;;;;;;;;;;;;;20.56;50.75;100631.50;4969766;28;6800;-74
2023/05/06 07:29:49;;;;;;;;;;;;;;;20.67;50.39;100640.31;4974950;28;7340;-75
2023/05/06 07:32:15;;;;;;;;;;;;;;;20.77;50.26;100637.81;4949616;28;6780;-75
2023/05/06 07:34:41;;;;;;;;;;;;;;;20.87;50.11;100634.47;4952168;28;6792;-75
2023/05/06 07:37:07;;;;;;;;;;;;;;;20.96;50.04;100633.66;4984323;28;7822;-74
2023/05/06 07:39:33;;;;;;;;;;;;;;;21.09;49.72;100632.03;4954424;28;7468;-75
2023/05/06 07:41:58;;;;;;;;;;;;;;;21.22;49.44;100636.47;4955866;28;6844;-75
2023/05/06 07:44:24;;;;;;;;;;;;;;;21.36;49.43;100627.91;4955149;28;6773;-75
2023/05/06 07:46:50;;;;;;;;;;;;;;;21.52;48.99;100631.47;4970778;28;6821;-75
2023/05/06 07:49:15;;;;;;;;;;;;;;;21.70;48.63;100635.94;4970689;28;6768;-75
2023/05/06 07:51:43;;;;;;;;;;;;;;;21.85;48.48;100642.13;4965101;28;6797;-75
2023/05/06 07:54:08;;;;;;;;;;;;;;;22.00;48.31;100638.72;4953185;28;6876;-75
2023/05/06 07:56:34;;;;;;;;;;;;;;;22.11;48.23;100633.53;4956083;28;6931;-75
2023/05/06 07:59:00;;;;;;;;;;;;;;;22.21;47.86;100637.91;4965301;28;6989;-76
2023/05/06 08:01:27;;;;;;;;;;;;;;;22.27;47.48;100637.94;4985339;28;6780;-75
2023/05/06 08:03:53;;;;;;;;;;;;;;;22.37;47.11;100637.97;4962721;28;7344;-75
2023/05/06 08:06:19;;;;;;;;;;;;;;;22.41;46.85;100639.75;4968382;28;6783;-75
2023/05/06 08:08:45;;;;;;;;;;;;;;;22.43;46.48;100640.63;4967295;28;6768;-76
2023/05/06 08:11:11;;;;;;;;;;;;;;;22.44;46.46;100638.00;4950596;28;7033;-76
2023/05/06 08:13:37;;;;;;;;;;;;;;;22.51;46.21;100640.66;4985283;28;7039;-75
2023/05/06 08:16:03;;;;;;;;;;;;;;;22.60;46.13;100644.19;4983412;28;6792;-76
2023/05/06 08:18:28;;;;;;;;;;;;;;;22.67;45.73;100637.22;4983759;28;7193;-76
2023/05/06 08:20:54;;;;;;;;;;;;;;;22.74;45.43;100638.09;4960611;28;6772;-76
2023/05/06 08:23:20;;;;;;;;;;;;;;;22.79;45.35;100630.25;4975172;28;7210;-76
2023/05/06 08:25:46;;;;;;;;;;;;;;;22.88;45.45;100631.13;4967086;28;6963;-76
2023/05/06 08:28:11;;;;;;;;;;;;;;;23.01;45.00;100625.94;4983757;28;6962;-76
2023/05/06 08:30:37;;;;;;;;;;;;;;;23.12;45.37;100629.41;4956377;28;7166;-75
2023/05/06 08:33:02;;;;;;;;;;;;;;;23.28;44.55;100627.69;4957280;28;6840;-75
2023/05/06 08:35:28;;;;;;;;;;;;;;;23.46;44.92;100632.88;4953963;28;6852;-76
2023/05/06 08:37:54;;;;;;;;;;;;;;;23.67;44.59;100622.38;4963775;28;6784;-75
2023/05/06 08:40:22;;;;;;;;;;;;;;;23.93;44.22;100623.16;4962413;28;6792;-76
2023/05/06 08:42:49;;;;;;;;;;;;;;;24.25;44.12;100625.69;4961706;28;6948;-76
2023/05/06 08:45:18;;;;;;;;;;;;;;;24.59;43.67;100634.19;4966728;28;6924;-76
2023/05/06 08:47:46;;;;;;;;;;;;;;;24.92;43.23;100613.91;4967274;28;6997;-76
2023/05/06 08:50:12;;;;;;;;;;;;;;;25.33;42.54;100614.41;4952703;28;7052;-76
2023/05/06 08:52:39;;;;;;;;;;;;;;;25.83;41.78;100617.41;4972410;28;6880;-75
2023/05/06 08:55:06;;;;;;;;;;;;;;;26.43;40.59;100617.53;4971563;28;6792;-76
2023/05/06 08:57:33;;;;;;;;;;;;;;;27.07;39.59;100609.50;4959785;28;7237;-76
2023/05/06 08:59:59;;;;;;;;;;;;;;;27.63;38.73;100618.19;4958540;28;6932;-76
2023/05/06 09:02:26;;;;;;;;;;;;;;;28.07;38.06;100608.47;4959306;28;7225;-76
2023/05/06 09:04:53;;;;;;;;;;;;;;;28.61;37.04;100602.91;4983456;28;7008;-75
2023/05/06 09:07:21;;;;;;;;;;;;;;;28.79;36.72;100610.38;4959454;28;7377;-74
2023/05/06 09:09:47;;;;;;;;;;;;;;;29.06;37.07;100604.47;4967650;28;7015;-75
2023/05/06 09:12:13;;;;;;;;;;;;;;;29.61;36.47;100591.59;4970501;28;6788;-75
2023/05/06 09:14:40;;;;;;;;;;;;;;;30.00;35.44;100592.22;4968832;28;6788;-75
2023/05/06 09:17:25;;;;;;;;;;;;;;;30.46;34.78;100592.59;4984712;28;7213;-75
2023/05/06 09:19:56;;;;;;;;;;;;;;;31.01;34.79;100597.00;4986172;28;7025;-75
2023/05/06 09:22:29;;;;;;;;;;;;;;;31.56;33.56;100593.28;4955839;28;6793;-75
2023/05/06 09:24:57;;;;;;;;;;;;;;;32.04;33.18;100586.22;4970762;28;6971;-75
2023/05/06 09:27:30;;;;;;;;;;;;;;;32.51;32.30;100595.03;4966036;28;7031;-75
2023/05/06 09:30:14;;;;;;;;;;;;;;;33.15;32.12;100582.59;4955672;28;7249;-75
2023/05/06 09:32:40;;;;;;;;;;;;;;;33.86;31.30;100591.84;4987454;28;11418;-75
2023/05/06 09:35:08;;;;;;;;;;;;;;;34.40;30.04;100582.22;4970519;28;7293;-74
2023/05/06 09:37:33;;;;;;;;;;;;;;;34.42;29.43;100581.22;4958255;28;6887;-75
2023/05/06 09:39:59;;;;;;;;;;;;;;;33.91;28.86;100580.97;4971197;28;6836;-75
2023/05/06 09:42:28;;;;;;;;;;;;;;;33.34;29.00;100577.34;4956434;28;7120;-75
2023/05/06 09:44:57;;;;;;;;;;;;;;;32.66;29.49;100582.91;4955284;28;7059;-74
2023/05/06 09:47:25;;;;;;;;;;;;;;;31.88;29.69;100593.91;4969967;28;7171;-75
2023/05/06 09:50:00;;;;;;;;;;;;;;;31.14;30.41;100585.03;4983671;28;7121;-75
2023/05/06 09:52:27;;;;;;;;;;;;;;;30.69;31.05;100586.56;4971146;28;7247;-74
2023/05/06 09:54:53;;;;;;;;;;;;;;;30.47;31.34;100583.75;4979705;28;6780;-75
2023/05/06 09:57:21;;;;;;;;;;;;;;;30.32;31.25;100585.09;4956080;28;6772;-75
2023/05/06 09:59:48;;;;;;;;;;;;;;;30.15;30.88;100578.56;4957365;28;6981;-75
2023/05/06 10:02:14;;;;;;;;;;;;;;;29.97;31.47;100587.00;4971944;28;7221;-75
2023/05/06 10:04:42;;;;;;;;;;;;;;;29.83;31.55;100579.50;4953206;28;7195;-75
2023/05/06 10:07:14;;;;;;;;;;;;;;;29.73;31.47;100579.78;4968887;28;7343;-75
2023/05/06 10:09:40;;;;;;;;;;;;;;;29.65;31.57;100572.09;4984448;28;7270;-75
2023/05/06 10:12:08;;;;;;;;;;;;;;;29.63;31.94;100580.97;4951643;28;7431;-75
2023/05/06 10:14:37;;;;;;;;;;;;;;;29.66;31.76;100573.81;4968105;28;7190;-75
2023/05/06 10:17:08;;;;;;;;;;;;;;;29.82;31.94;100567.22;4986322;28;6796;-75
2023/05/06 10:19:35;;;;;;;;;;;;;;;30.04;32.12;100568.31;4975494;28;7222;-75
2023/05/06 10:22:26;;;;;;;;;;;;;;;30.26;31.91;100572.94;4969921;28;6792;-75
2023/05/06 10:25:02;;;;;;;;;;;;;;;30.39;31.05;100570.78;4986356;28;7343;-75
2023/05/06 10:27:31;;;;;;;;;;;;;;;30.40;31.16;100568.97;4973719;28;7514;-75
2023/05/06 10:29:59;;;;;;;;;;;;;;;30.38;31.15;100570.81;4967976;28;6989;-75
2023/05/06 10:32:30;;;;;;;;;;;;;;;30.52;31.61;100571.25;4952804;28;7338;-75
2023/05/06 10:35:10;;;;;;;;;;;;;;;30.79;30.67;100560.66;4976498;28;6820;-75
2023/05/06 10:37:39;;;;;;;;;;;;;;;31.17;30.70;100554.97;4970664;28;6804;-73
2023/05/06 10:40:08;;;;;;;;;;;;;;;31.59;30.29;100556.13;4973367;28;6931;-75
2023/05/06 10:42:34;;;;;;;;;;;;;;;32.17;29.92;100551.28;4957371;28;7339;-75
2023/05/06 10:45:03;;;;;;;;;;;;;;;32.89;29.56;100544.78;4969867;28;6776;-75
2023/05/06 10:47:54;;;;;;;;;;;;;;;33.63;28.64;100540.63;4971941;28;7028;-73
2023/05/06 10:50:25;;;;;;;;;;;;;;;34.26;28.06;100537.69;4983369;28;8847;-73
2023/05/06 10:52:57;;;;;;;;;;;;;;;34.74;27.02;100530.84;4954415;28;7335;-74
2023/05/06 10:55:27;;;;;;;;;;;;;;;35.09;26.96;100524.63;4957483;28;6977;-73
2023/05/06 10:58:15;;;;;;;;;;;;;;;34.95;26.37;100522.69;4952311;28;6785;-73
2023/05/06 11:00:41;;;;;;;;;;;;;;;34.36;26.90;100528.31;4956806;28;6895;-73
2023/05/06 11:03:17;;;;;;;;;;;;;;;34.04;26.73;100528.13;4983269;28;6975;-73
2023/05/06 11:05:48;;;;;;;;;;;;;;;33.75;26.29;100525.03;4974030;28;6816;-74
2023/05/06 11:08:22;;;;;;;;;;;;;;;33.30;26.64;100525.28;4951025;28;6789;-73
2023/05/06 11:10:48;;;;;;;;;;;;;;;32.80;27.21;100523.94;4958666;28;6796;-74
2023/05/06 11:13:27;;;;;;;;;;;;;;;32.23;27.39;100524.53;4969696;28;7394;-73
2023/05/06 11:15:55;;;;;;;;;;;;;;;31.70;27.37;100527.44;4958308;28;6820;-73
2023/05/06 11:18:28;;;;;;;;;;;;;;;31.29;27.71;100524.53;4968222;28;7675;-73
2023/05/06 11:20:59;;;;;;;;;;;;;;;31.02;28.68;100519.34;4973228;28;7917;-73
2023/05/06 11:23:40;;;;;;;;;;;;;;;30.84;28.28;100519.06;4985968;28;7141;-75
2023/05/06 11:26:09;;;;;;;;;;;;;;;30.65;28.29;100510.03;4950150;28;6987;-75
2023/05/06 11:28:35;;;;;;;;;;;;;;;30.49;28.61;100511.41;4987500;28;7288;-75
2023/05/06 11:31:01;;;;;;;;;;;;;;;30.53;28.70;100511.28;4951959;28;6990;-75
2023/05/06 11:33:33;;;;;;;;;;;;;;;30.43;28.80;100513.38;4976111;28;6876;-75
2023/05/06 11:36:00;;;;;;;;;;;;;;;30.36;28.38;100512.69;4987007;28;7153;-75
2023/05/06 11:38:38;;;;;;;;;;;;;;;30.57;28.88;100507.63;4949482;28;7759;-75
2023/05/06 11:41:03;;;;;;;;;;;;;;;30.73;28.78;100506.19;4984054;28;6812;-75
2023/05/06 11:43:29;;;;;;;;;;;;;;;30.74;28.15;100493.84;4985776;28;7361;-74
2023/05/06 11:45:55;;;;;;;;;;;;;;;30.86;28.02;100493.41;4969258;28;6840;-75
2023/05/06 11:48:20;;;;;;;;;;;;;;;31.11;27.91;100492.53;4980882;28;7286;-75
2023/05/06 11:50:47;;;;;;;;;;;;;;;31.48;28.04;100494.72;4969802;28;6928;-75
2023/05/06 11:53:17;;;;;;;;;;;;;;;31.81;27.53;100497.03;4964968;28;6830;-75
2023/05/06 11:55:45;;;;;;;;;;;;;;;32.17;26.89;100488.53;4953056;28;7413;-75
2023/05/06 11:58:22;;;;;;;;;;;;;;;32.38;26.76;100489.44;4969877;28;8188;-75
2023/05/06 12:00:53;;;;;;;;;;;;;;;32.26;26.39;100492.56;4965678;28;6988;-75
2023/05/06 12:03:20;;;;;;;;;;;;;;;31.98;26.43;100499.00;4950522;28;7250;-75
2023/05/06 12:05:48;;;;;;;;;;;;;;;31.70;26.60;100494.75;4962051;28;6894;-75
2023/05/06 12:08:18;;;;;;;;;;;;;;;31.56;26.70;100490.00;4964334;28;6788;-75
2023/05/06 12:10:46;;;;;;;;;;;;;;;31.48;27.03;100494.72;4965542;28;7672;-75
2023/05/06 12:13:13;;;;;;;;;;;;;;;31.41;27.00;100494.09;4953003;28;8153;-75
2023/05/06 12:15:40;;;;;;;;;;;;;;;31.29;27.13;100498.06;4966598;28;6796;-75
2023/05/06 12:18:06;;;;;;;;;;;;;;;31.03;27.09;100499.88;4982693;28;7869;-75
2023/05/06 12:20:33;;;;;;;;;;;;;;;30.74;27.29;100492.06;4967781;28;7177;-75
2023/05/06 12:23:12;;;;;;;;;;;;;;;30.46;27.39;100492.97;4967240;28;8119;-75
2023/05/06 12:25:40;;;;;;;;;;;;;;;30.24;28.32;100500.78;4968875;28;8250;-75
2023/05/06 12:28:21;;;;;;;;;;;;;;;30.01;28.53;100506.78;4986299;28;7885;-75
2023/05/06 12:30:47;;;;;;;;;;;;;;;29.76;29.08;100504.88;4969572;28;6964;-75
2023/05/06 12:33:12;;;;;;;;;;;;;;;29.53;28.82;100503.81;4970911;28;7167;-75
2023/05/06 12:35:40;;;;;;;;;;;;;;;29.18;29.25;100508.28;4957226;28;7835;-75
2023/05/06 12:38:14;;;;;;;;;;;;;;;28.74;29.73;100508.56;4990416;28;6812;-75
2023/05/06 12:40:41;;;;;;;;;;;;;;;28.30;30.22;100507.03;4969588;28;6792;-75
2023/05/06 12:43:09;;;;;;;;;;;;;;;27.90;31.25;100510.53;4968547;28;6796;-75
2023/05/06 12:45:37;;;;;;;;;;;;;;;27.52;31.47;100515.72;4960406;28;7167;-74
2023/05/06 12:48:04;;;;;;;;;;;;;;;27.19;32.29;100521.63;4968834;28;6804;-73
2023/05/06 12:50:36;;;;;;;;;;;;;;;26.90;32.45;100517.78;4984631;28;6851;-73